Kings Langley, United Kingdom
Current Conditions -  °F | °C
As of 5:50 PM on Saturday 25 Oct 2014 (Local Time) from EGWU Reporting Station
Broken Clouds Broken Clouds  
Wind Chill: 57°   Ceiling: 4300
Heat Index: 57°   Visibility: 6mi
Dew Point: 46°   Wind: 7mph
Humidity: 67%   Direction: 240°WSW
Pressure: 30.09"   Gusts: NA
Location:  51.71°N, 0.45°W
Report Text: EGWU 251650Z 24006KT 9999 FEW036 BKN043 14/08 Q1019 BLU NOSIG
Loading
Personal Weather Stations






























Interactive Weather Map
Tropical Storm Tracking
New forecast layout! Learn more

10-Day Weather Forecast

Advertisements
Track Severe Weather on mobile